Terminal Aerodrome Forecast
Issued by NWS

Home | Current Version | Previous Version | Text Only | Print | Product List | Glossary On
Versions: 1 2 3 4 5 6 7 8 9 10 11 12 13 14 15 16 17 18 19
000
FTUS45 KRIW 241724
TAFJAC
TAF
KJAC 241724Z 2418/2518 21011KT P6SM VCSH OVC024
     FM242000 20011KT P6SM VCSH SCT024 BKN040
     FM250000 18007KT P6SM SCT050 SCT080
     FM250900 VRB06KT P6SM VCFG SCT010
     FM251700 VRB06KT P6SM BKN100
      AMD LTD TO CLD VIS AND WIND=

USA.gov is the U.S. government's official web portal to all federal, state and local government web resources and services.